createdAt,value
2018-07-21T00:01:53.686Z,67.40
2018-07-21T00:04:22.064Z,67.35
2018-07-21T00:06:50.476Z,67.35
2018-07-21T00:09:29.290Z,67.31
2018-07-21T00:11:57.659Z,67.45
2018-07-21T00:14:26.015Z,67.72
2018-07-21T00:16:54.396Z,67.93
2018-07-21T00:19:22.779Z,68.36
2018-07-21T00:21:51.153Z,68.23
2018-07-21T00:24:19.536Z,68.35
2018-07-21T00:26:47.924Z,68.43
2018-07-21T00:29:17.143Z,68.73
2018-07-21T00:31:45.574Z,68.86
2018-07-21T00:34:13.920Z,68.92
2018-07-21T00:36:42.296Z,69.10
2018-07-21T00:39:10.660Z,69.43
2018-07-21T00:41:39.408Z,69.46
2018-07-21T00:44:07.919Z,69.35
2018-07-21T00:46:36.295Z,69.45
2018-07-21T00:49:04.691Z,71.00
2018-07-21T00:51:33.312Z,71.32
2018-07-21T00:54:01.463Z,71.75
2018-07-21T00:56:29.846Z,71.87
2018-07-21T00:58:58.228Z,71.82
2018-07-21T01:01:26.600Z,71.88
2018-07-21T01:03:54.965Z,72.45
2018-07-21T01:12:20.622Z,73.78
2018-07-21T01:14:49.000Z,73.18
2018-07-21T01:17:17.414Z,72.53
2018-07-21T01:19:45.990Z,72.28
2018-07-21T01:22:14.169Z,72.26
2018-07-21T01:24:42.800Z,72.13
2018-07-21T01:27:13.101Z,72.27
2018-07-21T01:29:41.473Z,72.22
2018-07-21T01:32:10.796Z,72.27
2018-07-21T01:34:39.155Z,72.65
2018-07-21T01:37:07.531Z,73.02
2018-07-21T01:39:36.845Z,72.96
2018-07-21T01:42:05.214Z,72.82
2018-07-21T01:44:33.967Z,73.31
2018-07-21T01:47:02.333Z,73.24
2018-07-21T01:49:30.708Z,73.36
2018-07-21T01:51:59.080Z,73.32
2018-07-21T01:54:27.444Z,73.99
2018-07-21T01:56:55.862Z,74.54
2018-07-21T01:59:24.222Z,76.03
2018-07-21T02:01:52.599Z,76.20
2018-07-21T02:04:21.064Z,76.95
2018-07-21T02:06:49.446Z,77.21
2018-07-21T02:09:17.819Z,77.35
2018-07-21T02:11:46.232Z,77.03
2018-07-21T02:14:14.613Z,77.75
2018-07-21T02:16:42.984Z,77.17
2018-07-21T02:19:11.603Z,78.21
2018-07-21T02:21:39.989Z,79.04
2018-07-21T02:24:08.365Z,78.68
2018-07-21T02:26:37.044Z,78.26
2018-07-21T02:29:06.184Z,79.64
2018-07-21T02:31:34.789Z,78.67
2018-07-21T02:34:04.065Z,79.85
2018-07-21T02:36:32.453Z,78.83
2018-07-21T02:39:00.820Z,78.55
2018-07-21T02:41:28.985Z,78.05
2018-07-21T02:43:57.348Z,78.45
2018-07-21T02:46:25.775Z,78.82
2018-07-21T02:48:54.152Z,79.11
2018-07-21T02:51:22.557Z,79.25
2018-07-21T02:53:50.940Z,79.86
2018-07-21T02:56:19.329Z,79.70
2018-07-21T02:58:47.701Z,79.38
2018-07-21T03:01:16.645Z,79.14
2018-07-21T03:03:44.802Z,78.98
2018-07-21T03:06:13.429Z,79.09
2018-07-21T03:08:41.815Z,79.56
2018-07-21T03:11:10.166Z,79.40
2018-07-21T03:13:38.562Z,79.23
2018-07-21T03:16:06.926Z,79.38
2018-07-21T03:18:35.519Z,78.88
2018-07-21T03:21:03.893Z,78.78
2018-07-21T03:23:32.262Z,78.86
2018-07-21T03:26:00.646Z,78.86
2018-07-21T03:28:29.315Z,78.99
2018-07-21T03:30:57.724Z,78.31
2018-07-21T03:33:26.059Z,77.78
2018-07-21T03:35:54.432Z,77.98
2018-07-21T03:38:22.793Z,77.93
2018-07-21T03:40:51.189Z,77.84
2018-07-21T03:43:19.560Z,77.90
2018-07-21T03:45:48.079Z,77.79
2018-07-21T03:48:16.447Z,76.81
2018-07-21T03:50:45.035Z,76.83
2018-07-21T03:53:13.198Z,76.85
2018-07-21T03:55:41.568Z,76.81
2018-07-21T03:58:09.978Z,76.71
2018-07-21T04:00:39.115Z,76.54
2018-07-21T04:03:07.485Z,76.47
2018-07-21T04:05:35.866Z,76.46
2018-07-21T04:08:04.245Z,76.54
2018-07-21T04:10:32.960Z,76.53
2018-07-21T04:13:02.027Z,76.58
2018-07-21T04:15:30.407Z,76.66
2018-07-21T04:17:59.004Z,76.48
2018-07-21T04:20:27.146Z,76.21
2018-07-21T04:22:55.682Z,76.03
2018-07-21T04:25:24.059Z,75.28
2018-07-21T04:27:52.435Z,75.06
2018-07-21T04:30:20.804Z,75.14
2018-07-21T04:32:49.171Z,75.13
2018-07-21T04:35:18.415Z,74.83
2018-07-21T04:37:46.789Z,74.61
2018-07-21T04:40:15.179Z,74.70
2018-07-21T04:42:43.560Z,74.54
2018-07-21T04:45:11.931Z,74.49
2018-07-21T04:47:40.304Z,74.53
2018-07-21T04:50:08.675Z,74.47
2018-07-21T04:52:37.042Z,74.59
2018-07-21T04:55:05.424Z,74.52
2018-07-21T04:57:33.792Z,74.56
2018-07-21T05:00:02.187Z,73.96
2018-07-21T05:02:30.560Z,71.86
2018-07-21T05:04:58.935Z,71.56
2018-07-21T05:07:27.638Z,72.23
2018-07-21T05:09:56.791Z,72.27
2018-07-21T05:12:25.735Z,72.52
2018-07-21T05:14:54.091Z,72.48
2018-07-21T05:17:22.464Z,72.29
2018-07-21T05:19:50.836Z,72.10
2018-07-21T05:22:19.198Z,71.99
2018-07-21T05:24:47.598Z,71.87
2018-07-21T05:27:15.993Z,72.29
2018-07-21T05:29:45.135Z,72.20
2018-07-21T05:32:13.517Z,72.28
2018-07-21T05:34:41.920Z,72.26
2018-07-21T05:37:10.648Z,72.24
2018-07-21T05:39:39.791Z,72.13
2018-07-21T05:42:08.505Z,72.13
2018-07-21T05:44:37.114Z,72.08
2018-07-21T05:47:05.499Z,72.00
2018-07-21T05:49:33.877Z,72.06
2018-07-21T05:52:02.242Z,71.74
2018-07-21T05:54:30.965Z,71.54
2018-07-21T05:56:59.460Z,71.23
2018-07-21T05:59:29.067Z,70.96
2018-07-21T06:01:57.462Z,70.39
2018-07-21T06:04:25.830Z,70.18
2018-07-21T06:06:54.414Z,69.95
2018-07-21T06:09:22.804Z,69.61
2018-07-21T06:11:51.178Z,69.31
2018-07-21T06:14:19.554Z,68.94
2018-07-21T06:16:47.922Z,68.46
2018-07-21T06:19:16.303Z,68.71
2018-07-21T06:21:44.897Z,68.58
2018-07-21T06:24:13.337Z,68.38
2018-07-21T06:26:41.668Z,67.95
2018-07-21T06:29:09.990Z,67.46
2018-07-21T06:31:38.337Z,66.74
2018-07-21T06:34:07.466Z,67.30
2018-07-21T06:36:36.133Z,66.99
2018-07-21T06:39:04.453Z,66.93
2018-07-21T06:41:32.796Z,66.75
2018-07-21T06:44:01.248Z,66.54
2018-07-21T06:46:30.023Z,66.31
2018-07-21T06:48:58.164Z,66.11
2018-07-21T06:51:26.548Z,66.47
2018-07-21T06:53:54.919Z,65.69
2018-07-21T06:56:23.843Z,66.13
2018-07-21T06:58:52.342Z,66.30
2018-07-21T07:01:20.716Z,66.10
2018-07-21T07:03:49.078Z,66.41
2018-07-21T07:06:17.739Z,66.08
2018-07-21T07:08:48.049Z,65.46
2018-07-21T07:11:17.061Z,65.08
2018-07-21T07:13:45.433Z,64.83
2018-07-21T07:16:13.819Z,64.75
2018-07-21T07:18:42.215Z,64.71
2018-07-21T07:21:10.927Z,64.84
2018-07-21T07:23:39.297Z,65.37
2018-07-21T07:26:07.676Z,65.29
2018-07-21T07:28:36.208Z,65.34
2018-07-21T07:31:04.549Z,65.20
2018-07-21T07:33:32.960Z,64.70
2018-07-21T07:36:01.294Z,63.58
2018-07-21T07:38:29.677Z,64.01
2018-07-21T07:40:58.049Z,63.81
2018-07-21T07:43:26.410Z,63.15
2018-07-21T07:45:54.859Z,61.13
2018-07-21T07:48:23.252Z,60.54
2018-07-21T07:50:51.614Z,59.77
2018-07-21T07:53:20.044Z,60.13
2018-07-21T07:55:48.386Z,60.34
2018-07-21T07:58:16.765Z,60.78
2018-07-21T08:00:45.174Z,60.19
2018-07-21T08:03:13.575Z,59.58
2018-07-21T08:05:41.970Z,60.36
2018-07-21T08:08:10.351Z,60.06
2018-07-21T08:10:38.707Z,60.13
2018-07-21T08:13:08.549Z,60.18
2018-07-21T08:15:36.812Z,60.10
2018-07-21T08:18:05.200Z,60.03
2018-07-21T08:23:07.733Z,58.79
2018-07-21T08:25:36.113Z,58.24
2018-07-21T08:28:04.478Z,58.08
2018-07-21T08:30:32.845Z,57.94
2018-07-21T08:33:01.211Z,57.84
2018-07-21T08:35:29.571Z,57.70
2018-07-21T08:37:57.939Z,57.03
2018-07-21T08:40:26.313Z,56.53
2018-07-21T08:42:54.686Z,56.43
2018-07-21T08:45:23.040Z,56.84
2018-07-21T08:47:51.432Z,56.71
2018-07-21T08:50:19.806Z,55.62
2018-07-21T08:52:52.369Z,55.23
2018-07-21T08:55:20.743Z,55.63
2018-07-21T08:57:49.129Z,55.46
2018-07-21T09:00:17.518Z,55.87
2018-07-21T09:02:45.914Z,56.08
2018-07-21T09:05:14.274Z,55.71
2018-07-21T09:07:42.647Z,56.25
2018-07-21T09:10:11.024Z,56.57
2018-07-21T09:12:39.411Z,56.55
2018-07-21T09:15:07.783Z,56.86
2018-07-21T09:17:36.144Z,56.98
2018-07-21T09:20:04.511Z,56.79
2018-07-21T09:22:32.999Z,56.82
2018-07-21T09:25:01.374Z,57.10
2018-07-21T09:27:29.739Z,57.33
2018-07-21T09:29:58.103Z,56.56
2018-07-21T09:32:26.499Z,56.32
2018-07-21T09:34:59.141Z,56.06
2018-07-21T09:37:26.275Z,56.56
2018-07-21T09:39:55.691Z,56.68
2018-07-21T09:42:24.429Z,55.96
2018-07-21T09:44:54.147Z,55.91
2018-07-21T09:47:23.910Z,55.62
2018-07-21T09:52:35.788Z,56.37
2018-07-21T09:55:02.750Z,55.93
2018-07-21T09:57:32.724Z,54.58
2018-07-21T10:00:02.089Z,54.57
2018-07-21T10:02:30.459Z,55.30
2018-07-21T10:04:58.888Z,54.74
2018-07-21T10:07:27.282Z,54.30
2018-07-21T10:12:51.585Z,53.29
2018-07-21T10:15:21.353Z,52.47
2018-07-21T10:17:59.151Z,52.66
2018-07-21T10:29:17.913Z,51.40
2018-07-21T10:31:46.261Z,50.94
2018-07-21T10:34:14.995Z,50.09
2018-07-21T10:36:44.176Z,49.93
2018-07-21T10:39:13.357Z,50.66
2018-07-21T10:41:41.115Z,50.56
2018-07-21T10:44:09.519Z,50.50
2018-07-21T10:46:37.863Z,50.83
2018-07-21T10:49:06.267Z,49.83
2018-07-21T10:51:35.033Z,49.77
2018-07-21T10:54:03.656Z,49.77
2018-07-21T10:56:51.176Z,50.11
2018-07-21T10:59:27.623Z,50.17
2018-07-21T11:01:55.981Z,50.21
2018-07-21T11:04:24.353Z,50.33
2018-07-21T11:06:52.766Z,50.30
2018-07-21T11:09:21.141Z,50.17
2018-07-21T11:11:49.520Z,50.61
2018-07-21T11:14:18.285Z,50.35
2018-07-21T11:16:46.685Z,50.54
2018-07-21T11:19:15.135Z,49.44
2018-07-21T11:21:43.516Z,49.40
2018-07-21T11:24:12.169Z,48.64
2018-07-21T11:26:40.251Z,48.84
2018-07-21T11:29:08.619Z,48.04
2018-07-21T11:31:37.041Z,47.75
2018-07-21T11:34:05.998Z,48.06
2018-07-21T11:36:36.585Z,47.73
2018-07-21T11:39:05.028Z,47.21
2018-07-21T11:41:34.282Z,46.16
2018-07-21T11:44:02.646Z,47.19
2018-07-21T11:49:29.719Z,46.96
2018-07-21T11:51:58.376Z,46.77
2018-07-21T11:54:27.241Z,45.63
2018-07-21T11:56:56.276Z,45.89
2018-07-21T12:02:36.933Z,44.97
2018-07-21T12:05:20.702Z,45.27
2018-07-21T12:07:48.411Z,44.95
2018-07-21T12:10:16.786Z,44.34
2018-07-21T12:12:45.478Z,44.43
2018-07-21T12:15:21.013Z,43.69
2018-07-21T12:17:52.471Z,43.43
2018-07-21T12:20:21.271Z,43.36
2018-07-21T12:28:52.950Z,43.49
2018-07-21T12:34:14.795Z,41.66
2018-07-21T12:42:41.246Z,40.93
2018-07-21T12:48:09.931Z,40.01
2018-07-21T12:50:42.279Z,38.96
2018-07-21T12:56:12.996Z,37.69
2018-07-21T12:58:40.731Z,38.84
2018-07-21T13:04:04.675Z,37.54
2018-07-21T13:09:30.668Z,36.20
2018-07-21T13:11:59.037Z,36.06
2018-07-21T13:14:27.433Z,35.48
2018-07-21T13:16:55.794Z,35.15
2018-07-21T13:19:24.169Z,34.71
2018-07-21T13:21:52.552Z,35.08
2018-07-21T13:24:28.965Z,34.30
2018-07-21T13:26:57.379Z,33.73
2018-07-21T13:29:27.080Z,33.93
2018-07-21T13:31:54.134Z,33.52
2018-07-21T13:34:22.534Z,33.76
2018-07-21T13:36:50.895Z,33.00
2018-07-21T13:39:19.278Z,34.35
2018-07-21T13:41:47.654Z,33.93
2018-07-21T13:44:16.109Z,32.83
2018-07-21T13:46:46.626Z,33.23
2018-07-21T13:49:15.709Z,33.61
2018-07-21T13:51:47.121Z,33.02
2018-07-21T13:54:15.483Z,32.71
2018-07-21T13:59:32.415Z,32.87
2018-07-21T14:02:01.167Z,32.31
2018-07-21T14:04:29.538Z,32.33
2018-07-21T14:06:58.551Z,32.53
2018-07-21T14:09:26.920Z,32.74
2018-07-21T14:11:55.648Z,33.30
2018-07-21T14:14:27.820Z,32.37
2018-07-21T14:16:57.513Z,31.86
2018-07-21T14:19:24.882Z,31.57
2018-07-21T14:21:55.490Z,31.44
2018-07-21T14:24:23.101Z,31.08
2018-07-21T14:26:58.138Z,31.59
2018-07-21T14:29:22.906Z,31.88
2018-07-21T14:31:51.291Z,31.73
2018-07-21T14:34:20.459Z,30.93
2018-07-21T14:36:54.518Z,30.35
2018-07-21T14:39:23.110Z,29.97
2018-07-21T14:41:51.595Z,30.74
2018-07-21T14:44:21.325Z,30.72
2018-07-21T14:46:49.691Z,29.82
2018-07-21T14:49:18.054Z,29.36
2018-07-21T14:51:46.431Z,29.30
2018-07-21T14:54:14.787Z,29.23
2018-07-21T14:56:43.179Z,28.87
2018-07-21T14:59:11.570Z,29.94
2018-07-21T15:01:40.202Z,30.41
2018-07-21T15:04:10.328Z,30.58
2018-07-21T15:06:40.129Z,31.34
2018-07-21T15:09:06.849Z,30.61
2018-07-21T15:11:35.273Z,29.75
2018-07-21T15:14:03.645Z,29.10
2018-07-21T15:16:32.026Z,28.96
2018-07-21T15:19:00.378Z,28.80
2018-07-21T15:21:28.745Z,29.51
2018-07-21T15:23:57.138Z,30.31
2018-07-21T15:26:25.692Z,30.35
2018-07-21T15:28:53.837Z,29.68
2018-07-21T15:31:22.879Z,29.55
2018-07-21T15:33:53.435Z,29.03
2018-07-21T15:36:20.906Z,30.60
2018-07-21T15:38:49.292Z,31.38
2018-07-21T15:41:18.429Z,31.56
2018-07-21T15:43:46.808Z,32.02
2018-07-21T15:46:15.179Z,31.22
2018-07-21T15:48:44.351Z,30.47
2018-07-21T15:51:12.510Z,30.93
2018-07-21T15:53:41.194Z,30.52
2018-07-21T15:56:09.282Z,29.58
2018-07-21T15:58:37.693Z,29.18
2018-07-21T16:01:06.106Z,29.66
2018-07-21T16:03:34.458Z,30.04
2018-07-21T16:06:02.888Z,30.77
2018-07-21T16:08:31.254Z,30.73
2018-07-21T16:10:59.836Z,31.05
2018-07-21T16:13:28.033Z,31.54
2018-07-21T16:15:56.383Z,31.80
2018-07-21T16:18:25.675Z,31.89
2018-07-21T16:20:54.040Z,31.42
2018-07-21T16:23:22.427Z,31.81
2018-07-21T16:25:51.610Z,31.66
2018-07-21T16:28:23.062Z,31.87
2018-07-21T16:30:51.756Z,31.50
2018-07-21T16:33:22.722Z,31.96
2018-07-21T16:35:50.146Z,32.78
2018-07-21T16:38:18.486Z,32.26
2018-07-21T16:40:46.849Z,32.06
2018-07-21T16:43:15.294Z,31.35
2018-07-21T16:45:43.680Z,31.25
2018-07-21T16:48:12.825Z,31.23
2018-07-21T16:50:42.051Z,31.60
2018-07-21T16:55:51.024Z,33.68
2018-07-21T16:58:19.420Z,34.39
2018-07-21T17:00:47.939Z,35.04
2018-07-21T17:03:16.311Z,35.83
2018-07-21T17:05:44.667Z,36.90
2018-07-21T17:08:13.216Z,37.53
2018-07-21T17:10:42.080Z,37.98
2018-07-21T17:13:10.296Z,38.66
2018-07-21T17:15:39.134Z,39.01
2018-07-21T17:18:07.511Z,39.13
2018-07-21T17:20:38.556Z,39.31
2018-07-21T17:23:06.925Z,39.53
2018-07-21T17:25:35.647Z,39.65
2018-07-21T17:28:04.031Z,40.04
2018-07-21T17:30:32.405Z,40.39
2018-07-21T17:33:01.071Z,40.98
2018-07-21T17:35:29.434Z,41.47
2018-07-21T17:37:57.799Z,41.67
2018-07-21T17:40:26.161Z,42.03
2018-07-21T17:42:55.201Z,42.51
2018-07-21T17:45:23.558Z,42.70
2018-07-21T17:47:51.913Z,42.69
2018-07-21T17:50:20.269Z,42.91
2018-07-21T17:52:48.636Z,42.98
2018-07-21T17:55:16.994Z,42.44
2018-07-21T17:57:45.362Z,41.98
2018-07-21T18:00:13.767Z,41.98
2018-07-21T18:02:42.449Z,41.84
2018-07-21T18:05:11.010Z,42.35
2018-07-21T18:07:39.368Z,42.59
2018-07-21T18:10:07.726Z,42.78
2018-07-21T18:12:36.077Z,42.81
2018-07-21T18:15:04.437Z,42.87
2018-07-21T18:17:32.882Z,43.03
2018-07-21T18:20:01.253Z,43.37
2018-07-21T18:22:29.598Z,43.63
2018-07-21T18:24:57.974Z,44.13
2018-07-21T18:27:26.350Z,44.23
2018-07-21T18:29:54.723Z,44.05
2018-07-21T18:32:23.092Z,44.18
2018-07-21T18:34:51.453Z,44.36
2018-07-21T18:37:19.809Z,44.70
2018-07-21T18:39:48.219Z,45.10
2018-07-21T18:42:16.560Z,45.56
2018-07-21T18:44:44.916Z,45.83
2018-07-21T18:47:13.276Z,46.36
2018-07-21T18:49:42.564Z,46.82
2018-07-21T18:52:29.139Z,46.76
2018-07-21T18:55:04.708Z,46.93
2018-07-21T18:57:33.204Z,47.16
2018-07-21T19:00:01.576Z,47.29
2018-07-21T19:02:30.194Z,47.45
2018-07-21T19:04:58.704Z,47.62
2018-07-21T19:07:27.090Z,48.06
2018-07-21T19:09:55.726Z,48.45
2018-07-21T19:12:24.095Z,49.02
2018-07-21T19:14:52.487Z,49.39
2018-07-21T19:17:20.865Z,49.76
2018-07-21T19:19:49.293Z,50.47
2018-07-21T19:22:17.674Z,50.89
2018-07-21T19:24:46.053Z,51.45
2018-07-21T19:27:19.935Z,52.42
2018-07-21T19:29:48.779Z,53.00
2018-07-21T19:32:17.168Z,53.21
2018-07-21T19:34:45.541Z,53.21
2018-07-21T19:37:14.188Z,52.96
2018-07-21T19:39:42.341Z,52.57
2018-07-21T19:42:10.704Z,52.47
2018-07-21T19:44:39.092Z,52.57
2018-07-21T19:47:31.301Z,52.57
2018-07-21T19:49:59.652Z,52.74
2018-07-21T19:52:28.057Z,53.04
2018-07-21T19:57:53.587Z,53.31
2018-07-21T20:00:29.147Z,53.69
2018-07-21T20:02:59.285Z,53.89
2018-07-21T20:05:33.866Z,54.32
2018-07-21T20:08:03.080Z,54.89
2018-07-21T20:10:31.446Z,55.38
2018-07-21T20:12:59.810Z,55.78
2018-07-21T20:15:28.191Z,56.18
2018-07-21T20:17:56.580Z,56.05
2018-07-21T20:23:13.230Z,56.50
2018-07-21T20:25:41.598Z,56.53
2018-07-21T20:28:12.032Z,56.92
2018-07-21T20:30:47.683Z,56.75
2018-07-21T20:33:16.341Z,56.67
2018-07-21T20:35:44.732Z,56.56
2018-07-21T20:38:13.104Z,56.77
2018-07-21T20:40:41.549Z,56.82
2018-07-21T20:43:09.910Z,56.85
2018-07-21T20:45:41.382Z,56.77
2018-07-21T20:48:10.209Z,56.95
2018-07-21T20:50:38.540Z,56.92
2018-07-21T20:53:07.203Z,57.01
2018-07-21T20:55:35.600Z,56.84
2018-07-21T20:58:03.964Z,56.67
2018-07-21T21:00:32.428Z,56.50
2018-07-21T21:03:00.712Z,56.56
2018-07-21T21:05:29.308Z,56.81
2018-07-21T21:07:57.697Z,57.02
2018-07-21T21:10:26.204Z,57.03
2018-07-21T21:12:56.751Z,57.36
2018-07-21T21:15:25.111Z,57.20
2018-07-21T21:20:35.749Z,57.79
2018-07-21T21:23:03.895Z,57.87
2018-07-21T21:25:32.245Z,57.94
2018-07-21T21:28:00.631Z,58.25
2018-07-21T21:30:29.266Z,58.37
2018-07-21T21:32:58.051Z,58.61
2018-07-21T21:35:26.187Z,58.79
2018-07-21T21:37:54.549Z,59.58
2018-07-21T21:40:24.188Z,60.14
2018-07-21T21:42:52.445Z,60.23
2018-07-21T21:45:20.839Z,60.23
2018-07-21T21:47:49.435Z,60.64
2018-07-21T21:50:17.566Z,60.73
2018-07-21T21:52:45.969Z,60.70
2018-07-21T21:55:14.355Z,60.60
2018-07-21T21:57:43.859Z,60.16
2018-07-21T22:00:12.327Z,59.95
2018-07-21T22:02:42.014Z,59.95
2018-07-21T22:05:11.236Z,59.75
2018-07-21T22:07:39.380Z,59.79
2018-07-21T22:10:07.751Z,59.80
2018-07-21T22:12:36.107Z,60.09
2018-07-21T22:15:04.469Z,60.39
2018-07-21T22:17:33.792Z,60.64
2018-07-21T22:20:02.201Z,61.05
2018-07-21T22:22:30.644Z,61.26
2018-07-21T22:24:59.041Z,61.40
2018-07-21T22:27:27.409Z,61.57
2018-07-21T22:29:56.588Z,61.72
2018-07-21T22:32:25.045Z,61.82
2018-07-21T22:34:53.450Z,61.70
2018-07-21T22:37:21.775Z,61.78
2018-07-21T22:39:50.507Z,61.77
2018-07-21T22:42:18.929Z,61.80
2018-07-21T22:44:47.575Z,62.05
2018-07-21T22:47:15.944Z,62.36
2018-07-21T22:49:44.663Z,62.34
2018-07-21T22:52:13.950Z,62.34
2018-07-21T22:54:42.100Z,62.51
2018-07-21T22:57:20.621Z,62.63
2018-07-21T22:59:49.795Z,62.79
2018-07-21T23:02:18.167Z,63.01
2018-07-21T23:04:46.522Z,63.27
2018-07-21T23:07:15.199Z,63.44
2018-07-21T23:09:43.589Z,63.50
2018-07-21T23:12:12.098Z,63.38
2018-07-21T23:14:40.465Z,63.67
2018-07-21T23:17:08.819Z,63.80
2018-07-21T23:19:38.196Z,63.85
2018-07-21T23:22:06.563Z,63.86
2018-07-21T23:24:34.972Z,64.07
2018-07-21T23:27:03.958Z,64.23
2018-07-21T23:29:32.328Z,64.03
2018-07-21T23:32:00.691Z,63.96
2018-07-21T23:34:29.046Z,63.84
2018-07-21T23:36:57.423Z,63.92
2018-07-21T23:39:25.797Z,64.08
2018-07-21T23:41:54.163Z,64.30
2018-07-21T23:44:23.151Z,64.82
2018-07-21T23:46:51.528Z,65.22
2018-07-21T23:49:19.883Z,65.50
2018-07-21T23:51:48.252Z,65.58
2018-07-21T23:54:16.852Z,65.51
2018-07-21T23:56:45.230Z,65.78
2018-07-21T23:59:13.591Z,66.05
